createdAt,value
2018-09-11T00:00:31.621Z,75.42
2018-09-11T00:01:39.654Z,75.01
2018-09-11T00:02:31.247Z,76.12
2018-09-11T00:03:31.838Z,77.03
2018-09-11T00:04:30.897Z,76.63
2018-09-11T00:05:40.109Z,76.73
2018-09-11T00:06:41.466Z,77.17
2018-09-11T00:07:32.742Z,76.67
2018-09-11T00:08:30.921Z,76.63
2018-09-11T00:09:30.823Z,75.55
2018-09-11T00:10:30.700Z,76.77
2018-09-11T00:11:30.673Z,75.45
2018-09-11T00:14:02.553Z,75.96
2018-09-11T00:14:53.380Z,76.06
2018-09-11T00:15:53.177Z,75.45
2018-09-11T00:16:52.988Z,75.35
2018-09-11T00:21:23.011Z,74.84
2018-09-11T00:22:23.025Z,75.15
2018-09-11T00:23:37.043Z,75.15
2018-09-11T00:24:23.513Z,75.76
2018-09-11T00:25:37.721Z,74.54
2018-09-11T00:26:23.015Z,75.04
2018-09-11T00:29:48.855Z,75.76
2018-09-11T00:30:48.663Z,76.90
2018-09-11T00:32:00.559Z,75.79
2018-09-11T00:32:48.785Z,76.77
2018-09-11T00:33:48.760Z,76.87
2018-09-11T00:34:49.735Z,76.80
2018-09-11T00:35:59.658Z,77.07
2018-09-11T00:38:29.765Z,77.17
2018-09-11T00:44:09.003Z,76.77
2018-09-11T00:46:52.358Z,77.17
2018-09-11T00:47:53.088Z,77.37
2018-09-11T00:48:52.068Z,77.88
2018-09-11T00:49:52.114Z,78.19
2018-09-11T00:50:51.998Z,77.82
2018-09-11T00:53:19.196Z,76.87
2018-09-11T00:54:19.423Z,76.70
2018-09-11T00:55:19.234Z,76.87
2018-09-11T01:01:43.367Z,76.80
2018-09-11T01:04:00.763Z,79.20
2018-09-11T01:05:00.657Z,77.58
2018-09-11T01:06:00.388Z,77.51
2018-09-11T01:07:00.283Z,78.33
2018-09-11T01:08:00.239Z,78.02
2018-09-11T01:09:01.208Z,78.73
2018-09-11T01:10:00.190Z,78.33
2018-09-11T01:11:00.159Z,77.72
2018-09-11T01:12:00.163Z,77.31
2018-09-11T01:13:21.269Z,77.61
2018-09-11T01:14:01.158Z,77.11
2018-09-11T01:15:00.081Z,76.80
2018-09-11T01:16:10.504Z,76.90
2018-09-11T01:17:00.652Z,77.61
2018-09-11T01:18:01.082Z,76.90
2018-09-11T01:20:28.263Z,78.22
2018-09-11T01:21:28.222Z,79.03
2018-09-11T01:22:38.224Z,79.44
2018-09-11T01:23:27.677Z,77.82
2018-09-11T01:24:37.856Z,77.92
2018-09-11T01:25:27.442Z,79.03
2018-09-11T01:26:37.717Z,78.97
2018-09-11T01:27:48.495Z,78.87
2018-09-11T01:28:27.263Z,79.47
2018-09-11T01:29:27.700Z,79.54
2018-09-11T01:30:27.089Z,79.68
2018-09-11T01:31:27.292Z,79.27
2018-09-11T01:32:27.135Z,79.68
2018-09-11T01:36:38.662Z,79.03
2018-09-11T01:37:37.905Z,78.97
2018-09-11T01:38:37.985Z,78.97
2018-09-11T01:40:58.323Z,79.34
2018-09-11T01:43:16.935Z,79.17
2018-09-11T01:44:16.958Z,79.03
2018-09-11T01:45:16.822Z,79.68
2018-09-11T01:46:16.639Z,79.17
2018-09-11T01:47:18.196Z,78.77
2018-09-11T01:50:35.484Z,79.58
2018-09-11T01:51:34.844Z,80.49
2018-09-11T01:52:34.477Z,80.49
2018-09-11T01:54:06.007Z,80.29
2018-09-11T01:54:34.407Z,79.88
2018-09-11T01:55:34.355Z,80.49
2018-09-11T01:56:34.411Z,80.59
2018-09-11T01:58:52.227Z,80.29
2018-09-11T01:59:45.686Z,80.69
2018-09-11T02:00:45.510Z,80.39
2018-09-11T02:01:45.506Z,80.08
2018-09-11T02:02:45.687Z,79.98
2018-09-11T02:03:45.124Z,79.58
2018-09-11T02:04:45.091Z,79.07
2018-09-11T02:05:56.181Z,79.82
2018-09-11T02:06:46.355Z,80.59
2018-09-11T02:07:45.749Z,80.29
2018-09-11T02:08:45.385Z,79.72
2018-09-11T02:11:19.835Z,80.08
2018-09-11T02:14:20.013Z,80.32
2018-09-11T02:15:19.568Z,80.02
2018-09-11T02:16:19.685Z,79.72
2018-09-11T02:17:20.034Z,79.72
2018-09-11T02:18:19.031Z,79.82
2018-09-11T02:19:18.997Z,78.91
2018-09-11T02:20:18.960Z,79.41
2018-09-11T02:21:48.432Z,79.51
2018-09-11T02:22:19.072Z,79.61
2018-09-11T02:23:18.951Z,79.61
2018-09-11T02:24:19.038Z,79.45
2018-09-11T02:25:18.892Z,79.55
2018-09-11T02:26:18.855Z,79.51
2018-09-11T02:28:27.857Z,79.21
2018-09-11T02:29:26.931Z,79.25
2018-09-11T02:30:26.854Z,79.14
2018-09-11T02:31:42.842Z,79.04
2018-09-11T02:32:27.791Z,79.65
2018-09-11T02:33:27.021Z,78.94
2018-09-11T02:37:05.484Z,78.33
2018-09-11T02:38:04.823Z,78.23
2018-09-11T02:39:05.122Z,78.47
2018-09-11T02:40:04.472Z,78.37
2018-09-11T02:42:57.594Z,78.06
2018-09-11T02:43:42.213Z,78.88
2018-09-11T02:44:53.335Z,78.67
2018-09-11T02:47:10.645Z,79.18
2018-09-11T02:48:06.118Z,79.18
2018-09-11T02:49:06.077Z,79.08
2018-09-11T02:50:06.161Z,78.88
2018-09-11T02:51:06.016Z,79.32
2018-09-11T02:52:05.978Z,78.91
2018-09-11T02:53:05.997Z,79.12
2018-09-11T02:54:05.950Z,78.61
2018-09-11T02:55:06.482Z,78.20
2018-09-11T02:56:05.943Z,78.41
2018-09-11T02:57:05.911Z,78.51
2018-09-11T02:59:17.580Z,79.93
2018-09-11T03:00:17.577Z,80.17
2018-09-11T03:01:17.474Z,80.24
2018-09-11T03:02:28.697Z,80.37
2018-09-11T03:03:17.990Z,80.27
2018-09-11T03:04:17.941Z,80.27
2018-09-11T03:05:20.540Z,80.68
2018-09-11T03:06:59.969Z,80.78
2018-09-11T03:07:17.506Z,80.78
2018-09-11T03:08:17.514Z,81.19
2018-09-11T03:09:17.364Z,81.19
2018-09-11T03:10:17.455Z,81.45
2018-09-11T03:11:17.344Z,80.98
2018-09-11T03:17:57.847Z,81.86
2018-09-11T03:18:53.135Z,81.90
2018-09-11T03:19:52.686Z,81.86
2018-09-11T03:23:15.024Z,82.47
2018-09-11T03:24:15.026Z,82.20
2018-09-11T03:25:15.024Z,82.10
2018-09-11T03:26:14.994Z,82.71
2018-09-11T03:27:15.017Z,82.67
2018-09-11T03:28:15.001Z,82.06
2018-09-11T03:29:39.506Z,82.10
2018-09-11T03:30:15.449Z,81.59
2018-09-11T03:31:14.942Z,82.40
2018-09-11T03:33:28.916Z,82.10
2018-09-11T03:34:28.413Z,82.47
2018-09-11T03:35:28.378Z,82.40
2018-09-11T03:36:28.454Z,83.28
2018-09-11T03:37:28.322Z,82.81
2018-09-11T03:38:28.314Z,82.78
2018-09-11T03:39:28.306Z,82.47
2018-09-11T03:40:28.266Z,82.37
2018-09-11T03:41:28.253Z,82.26
2018-09-11T03:42:28.324Z,82.10
2018-09-11T03:44:39.856Z,82.81
2018-09-11T03:45:39.755Z,83.12
2018-09-11T03:46:39.816Z,82.57
2018-09-11T03:50:48.733Z,83.18
2018-09-11T03:51:47.940Z,82.78
2018-09-11T03:53:18.359Z,82.61
2018-09-11T03:53:47.724Z,82.47
2018-09-11T03:54:47.766Z,82.61
2018-09-11T03:55:47.649Z,83.62
2018-09-11T03:56:47.677Z,82.40
2018-09-11T03:58:57.155Z,82.81
2018-09-11T03:59:56.617Z,82.81
2018-09-11T04:00:56.582Z,81.79
2018-09-11T04:01:56.565Z,82.51
2018-09-11T04:02:56.437Z,82.20
2018-09-11T04:03:56.411Z,82.10
2018-09-11T04:04:56.548Z,82.20
2018-09-11T04:05:56.462Z,83.12
2018-09-11T04:06:56.376Z,82.61
2018-09-11T04:07:56.934Z,82.10
2018-09-11T04:08:56.377Z,82.31
2018-09-11T04:09:56.342Z,82.40
2018-09-11T04:10:56.378Z,81.90
2018-09-11T04:11:56.324Z,83.01
2018-09-11T04:13:55.177Z,82.67
2018-09-11T04:16:45.318Z,82.67
2018-09-11T04:17:46.041Z,81.76
2018-09-11T04:20:42.848Z,82.37
2018-09-11T04:22:53.705Z,80.94
2018-09-11T04:23:53.803Z,80.84
2018-09-11T04:24:53.722Z,82.51
2018-09-11T04:29:51.329Z,83.48
2018-09-11T04:33:46.966Z,83.28
2018-09-11T04:34:46.274Z,83.48
2018-09-11T04:35:46.135Z,82.37
2018-09-11T04:36:45.810Z,83.59
2018-09-11T04:37:46.119Z,83.48
2018-09-11T04:38:45.599Z,82.57
2018-09-11T04:39:47.315Z,82.78
2018-09-11T04:40:59.910Z,83.59
2018-09-11T04:41:45.647Z,82.78
2018-09-11T04:47:33.824Z,81.41
2018-09-11T04:49:44.373Z,81.92
2018-09-11T04:50:44.903Z,81.72
2018-09-11T04:51:43.802Z,80.19
2018-09-11T04:52:43.925Z,79.69
2018-09-11T04:53:43.738Z,79.69
2018-09-11T04:54:43.695Z,79.69
2018-09-11T04:56:04.697Z,79.18
2018-09-11T04:56:44.664Z,78.98
2018-09-11T04:57:44.703Z,79.49
2018-09-11T04:59:55.511Z,79.38
2018-09-11T05:01:25.199Z,79.38
2018-09-11T05:01:54.539Z,79.85
2018-09-11T05:02:54.501Z,79.79
2018-09-11T05:03:54.421Z,80.10
2018-09-11T05:04:54.449Z,79.79
2018-09-11T05:05:54.334Z,79.90
2018-09-11T05:06:54.301Z,79.55
2018-09-11T05:07:54.977Z,79.25
2018-09-11T05:08:54.274Z,79.25
2018-09-11T05:09:54.277Z,78.84
2018-09-11T05:10:54.269Z,78.84
2018-09-11T05:11:54.248Z,78.94
2018-09-11T05:15:30.884Z,77.83
2018-09-11T05:16:24.837Z,78.44
2018-09-11T05:17:24.860Z,78.64
2018-09-11T05:18:24.721Z,78.03
2018-09-11T05:19:24.695Z,77.83
2018-09-11T05:20:24.693Z,77.72
2018-09-11T05:21:24.706Z,78.23
2018-09-11T05:22:25.655Z,79.45
2018-09-11T05:23:24.673Z,78.94
2018-09-11T05:24:24.635Z,79.45
2018-09-11T05:25:24.618Z,78.84
2018-09-11T05:26:24.638Z,79.65
2018-09-11T05:27:24.659Z,79.35
2018-09-11T05:29:36.290Z,78.94
2018-09-11T05:30:36.238Z,78.80
2018-09-11T05:31:36.158Z,79.11
2018-09-11T05:32:36.231Z,79.31
2018-09-11T05:33:36.156Z,79.61
2018-09-11T05:34:37.055Z,78.60
2018-09-11T05:35:36.074Z,81.13
2018-09-11T05:36:36.032Z,80.53
2018-09-11T05:37:36.019Z,80.43
2018-09-11T05:38:36.106Z,80.43
2018-09-11T05:39:36.999Z,80.32
2018-09-11T05:40:36.042Z,80.83
2018-09-11T05:41:37.554Z,80.73
2018-09-11T05:42:35.965Z,81.60
2018-09-11T05:44:47.649Z,79.47
2018-09-11T05:45:47.435Z,80.08
2018-09-11T05:46:47.344Z,80.59
2018-09-11T05:47:47.405Z,80.29
2018-09-11T05:48:47.292Z,81.81
2018-09-11T05:49:47.904Z,80.19
2018-09-11T05:50:47.249Z,80.19
2018-09-11T05:51:47.200Z,80.08
2018-09-11T05:52:47.239Z,80.59
2018-09-11T05:53:47.198Z,80.69
2018-09-11T05:54:47.177Z,80.96
2018-09-11T05:55:48.163Z,80.76
2018-09-11T05:56:47.440Z,80.86
2018-09-11T05:57:47.136Z,80.76
2018-09-11T06:01:20.621Z,81.46
2018-09-11T06:02:20.802Z,80.35
2018-09-11T06:03:20.467Z,80.45
2018-09-11T06:04:20.337Z,79.24
2018-09-11T06:05:54.617Z,79.13
2018-09-11T06:06:22.949Z,79.34
2018-09-11T06:07:32.025Z,78.22
2018-09-11T06:08:21.150Z,79.50
2018-09-11T06:09:21.498Z,79.74
2018-09-11T06:10:20.142Z,78.93
2018-09-11T06:11:20.133Z,78.19
2018-09-11T06:12:20.124Z,78.39
2018-09-11T06:14:32.419Z,77.58
2018-09-11T06:15:32.490Z,77.17
2018-09-11T06:16:32.395Z,77.28
2018-09-11T06:17:32.385Z,78.25
2018-09-11T06:18:32.255Z,77.28
2018-09-11T06:19:32.197Z,77.95
2018-09-11T06:20:32.170Z,77.75
2018-09-11T06:21:32.238Z,78.31
2018-09-11T06:22:32.152Z,78.55
2018-09-11T06:23:32.143Z,79.02
2018-09-11T06:24:32.131Z,79.02
2018-09-11T06:25:32.139Z,78.72
2018-09-11T06:26:33.103Z,78.92
2018-09-11T06:27:32.094Z,78.01
2018-09-11T06:29:55.720Z,76.97
2018-09-11T06:30:43.801Z,77.17
2018-09-11T06:31:44.684Z,76.97
2018-09-11T06:32:43.725Z,76.62
2018-09-11T06:33:43.688Z,76.62
2018-09-11T06:34:44.123Z,74.80
2018-09-11T06:35:43.660Z,74.30
2018-09-11T06:36:43.653Z,74.87
2018-09-11T06:37:43.677Z,73.96
2018-09-11T06:38:43.624Z,73.46
2018-09-11T06:39:43.671Z,73.15
2018-09-11T06:40:43.610Z,73.55
2018-09-11T06:41:43.597Z,73.42
2018-09-11T06:42:44.116Z,71.70
2018-09-11T06:44:54.973Z,72.17
2018-09-11T06:45:54.976Z,72.27
2018-09-11T06:46:54.903Z,70.32
2018-09-11T06:47:54.965Z,70.36
2018-09-11T06:48:54.855Z,69.55
2018-09-11T06:49:54.773Z,70.02
2018-09-11T06:50:54.782Z,68.95
2018-09-11T06:51:54.743Z,68.54
2018-09-11T06:52:54.733Z,69.65
2018-09-11T06:53:54.782Z,68.84
2018-09-11T06:54:54.758Z,68.84
2018-09-11T06:55:54.706Z,68.21
2018-09-11T06:56:54.688Z,68.30
2018-09-11T06:57:54.680Z,68.10
2018-09-11T07:00:05.277Z,69.62
2018-09-11T07:01:04.813Z,68.10
2018-09-11T07:02:04.461Z,68.91
2018-09-11T07:03:04.515Z,69.52
2018-09-11T07:04:04.390Z,69.48
2018-09-11T07:05:04.349Z,68.10
2018-09-11T07:06:04.420Z,66.66
2018-09-11T07:07:04.339Z,68.17
2018-09-11T07:08:04.317Z,68.17
2018-09-11T07:09:04.327Z,67.97
2018-09-11T07:10:05.286Z,66.96
2018-09-11T07:11:09.674Z,67.36
2018-09-11T07:12:04.274Z,66.76
2018-09-11T07:13:04.290Z,66.76
2018-09-11T07:16:30.514Z,68.38
2018-09-11T07:17:29.804Z,68.44
2018-09-11T07:18:29.730Z,66.40
2018-09-11T07:19:29.868Z,66.67
2018-09-11T07:20:29.855Z,65.73
2018-09-11T07:21:29.892Z,63.46
2018-09-11T07:22:29.663Z,60.25
2018-09-11T07:23:29.632Z,63.43
2018-09-11T07:24:29.630Z,62.37
2018-09-11T07:25:29.614Z,59.44
2018-09-11T07:26:29.708Z,58.53
2018-09-11T07:27:29.602Z,58.03
2018-09-11T07:29:41.056Z,57.96
2018-09-11T07:30:41.045Z,56.56
2018-09-11T07:31:40.944Z,59.09
2018-09-11T07:32:41.027Z,58.31
2018-09-11T07:33:40.964Z,59.14
2018-09-11T07:34:40.848Z,60.05
2018-09-11T07:35:40.873Z,59.85
2018-09-11T07:36:40.872Z,59.95
2018-09-11T07:37:40.823Z,60.08
2018-09-11T07:38:42.598Z,61.08
2018-09-11T07:39:40.791Z,61.15
2018-09-11T07:40:40.790Z,61.55
2018-09-11T07:41:40.776Z,62.26
2018-09-11T07:42:40.765Z,61.43
2018-09-11T07:44:50.662Z,61.40
2018-09-11T07:45:50.515Z,61.77
2018-09-11T07:46:50.567Z,58.56
2018-09-11T07:47:50.462Z,60.57
2018-09-11T07:48:50.430Z,61.67
2018-09-11T07:49:50.462Z,58.73
2018-09-11T07:50:50.409Z,58.03
2018-09-11T07:51:50.420Z,59.23
2018-09-11T07:52:50.414Z,59.74
2018-09-11T07:53:50.378Z,58.20
2018-09-11T07:54:50.356Z,57.00
2018-09-11T07:55:50.361Z,56.23
2018-09-11T07:56:50.375Z,56.52
2018-09-11T07:57:50.345Z,56.13
2018-09-11T08:00:02.193Z,57.03
2018-09-11T08:01:01.993Z,56.43
2018-09-11T08:02:01.868Z,57.03
2018-09-11T08:03:01.883Z,57.03
2018-09-11T08:04:01.978Z,58.00
2018-09-11T08:05:01.982Z,57.60
2018-09-11T08:06:01.797Z,56.90
2018-09-11T08:07:01.766Z,55.93
2018-09-11T08:08:01.797Z,55.22
2018-09-11T08:09:01.801Z,55.63
2018-09-11T08:10:01.749Z,56.52
2018-09-11T08:11:01.750Z,56.93
2018-09-11T08:12:01.744Z,57.93
2018-09-11T08:13:01.703Z,55.40
2018-09-11T08:15:15.130Z,54.60
2018-09-11T08:16:15.132Z,56.70
2018-09-11T08:17:15.108Z,55.40
2018-09-11T08:18:14.971Z,54.60
2018-09-11T08:19:16.044Z,55.37
2018-09-11T08:20:14.964Z,55.37
2018-09-11T08:21:14.880Z,55.47
2018-09-11T08:22:14.887Z,55.27
2018-09-11T08:23:14.859Z,55.87
2018-09-11T08:24:14.879Z,55.60
2018-09-11T08:25:14.856Z,56.67
2018-09-11T08:26:14.832Z,55.37
2018-09-11T08:27:14.815Z,56.77
2018-09-11T08:28:15.008Z,55.37
2018-09-11T08:30:26.479Z,56.80
2018-09-11T08:31:26.477Z,55.70
2018-09-11T08:32:26.353Z,57.00
2018-09-11T08:33:26.393Z,56.57
2018-09-11T08:34:26.313Z,54.80
2018-09-11T08:35:26.254Z,56.37
2018-09-11T08:36:26.258Z,55.47
2018-09-11T08:37:26.273Z,55.57
2018-09-11T08:38:26.216Z,55.37
2018-09-11T08:39:26.227Z,53.77
2018-09-11T08:40:26.203Z,55.17
2018-09-11T08:41:26.189Z,53.44
2018-09-11T08:42:26.213Z,54.87
2018-09-11T08:43:26.162Z,53.17
2018-09-11T08:45:37.511Z,53.59
2018-09-11T08:46:37.562Z,54.27
2018-09-11T08:47:37.380Z,53.39
2018-09-11T08:48:37.476Z,54.90
2018-09-11T08:49:37.347Z,56.73
2018-09-11T08:50:37.319Z,57.40
2018-09-11T08:51:37.295Z,57.10
2018-09-11T08:52:37.418Z,56.50
2018-09-11T08:53:37.310Z,55.30
2018-09-11T08:54:37.265Z,55.00
2018-09-11T08:55:37.281Z,56.00
2018-09-11T08:56:37.232Z,55.90
2018-09-11T08:57:37.231Z,55.57
2018-09-11T08:59:48.894Z,55.57
2018-09-11T09:00:48.873Z,54.87
2018-09-11T09:01:48.790Z,55.98
2018-09-11T09:02:48.853Z,56.77
2018-09-11T09:03:48.732Z,53.74
2018-09-11T09:04:48.736Z,55.74
2018-09-11T09:05:48.731Z,55.15
2018-09-11T09:06:51.698Z,55.32
2018-09-11T09:07:48.676Z,54.52
2018-09-11T09:08:48.722Z,54.42
2018-09-11T09:09:48.695Z,54.90
2018-09-11T09:10:48.647Z,53.42
2018-09-11T09:11:49.214Z,55.62
2018-09-11T09:12:48.688Z,55.12
2018-09-11T09:15:02.216Z,53.62
2018-09-11T09:16:01.399Z,54.64
2018-09-11T09:17:01.363Z,54.94
2018-09-11T09:18:02.205Z,54.44
2018-09-11T09:19:01.268Z,53.85
2018-09-11T09:20:01.275Z,56.37
2018-09-11T09:21:02.154Z,55.74
2018-09-11T09:22:01.213Z,55.94
2018-09-11T09:23:01.204Z,56.45
2018-09-11T09:24:04.601Z,56.92
2018-09-11T09:25:01.221Z,53.94
2018-09-11T09:26:01.204Z,54.72
2018-09-11T09:27:01.166Z,54.52
2018-09-11T09:28:01.140Z,54.42
2018-09-11T09:30:12.589Z,53.89
2018-09-11T09:31:12.551Z,53.99
2018-09-11T09:32:12.487Z,53.99
2018-09-11T09:33:12.499Z,53.99
2018-09-11T09:34:12.379Z,53.89
2018-09-11T09:35:12.339Z,52.69
2018-09-11T09:36:12.378Z,52.77
2018-09-11T09:37:12.325Z,51.47
2018-09-11T09:38:12.312Z,52.27
2018-09-11T09:39:12.384Z,54.17
2018-09-11T09:40:12.303Z,52.67
2018-09-11T09:41:12.320Z,54.04
2018-09-11T09:42:12.303Z,52.14
2018-09-11T09:43:12.255Z,51.07
2018-09-11T09:45:23.639Z,52.57
2018-09-11T09:46:23.571Z,50.95
2018-09-11T09:47:23.489Z,50.95
2018-09-11T09:48:23.568Z,51.25
2018-09-11T09:49:23.432Z,52.34
2018-09-11T09:50:23.403Z,50.95
2018-09-11T09:51:23.416Z,51.25
2018-09-11T09:52:25.202Z,51.15
2018-09-11T09:53:23.393Z,50.95
2018-09-11T09:54:23.374Z,50.04
2018-09-11T09:55:23.338Z,50.15
2018-09-11T09:56:24.256Z,49.67
2018-09-11T09:57:23.343Z,49.77
2018-09-11T09:58:23.311Z,50.45
2018-09-11T18:20:34.948Z,61.95
2018-09-11T18:21:34.890Z,60.94
2018-09-11T18:22:34.912Z,61.35
2018-09-11T18:23:45.865Z,61.04
2018-09-11T18:25:47.223Z,62.15
2018-09-11T18:26:47.180Z,62.35
2018-09-11T18:27:47.156Z,62.45
2018-09-11T18:28:47.272Z,63.09
2018-09-11T18:30:58.450Z,63.70
2018-09-11T18:31:58.352Z,63.19
2018-09-11T18:32:58.296Z,63.19
2018-09-11T18:34:07.004Z,63.46
2018-09-11T18:34:58.915Z,63.29
2018-09-11T18:36:00.441Z,63.70
2018-09-11T18:36:59.988Z,64.10
2018-09-11T18:38:00.178Z,64.81
2018-09-11T18:38:59.471Z,64.61
2018-09-11T18:39:58.302Z,65.01
2018-09-11T18:41:01.004Z,64.30
2018-09-11T18:41:58.173Z,64.53
2018-09-11T18:42:58.253Z,64.53
2018-09-11T18:43:58.339Z,64.23
2018-09-11T18:46:10.245Z,64.56
2018-09-11T18:47:09.377Z,65.17
2018-09-11T18:48:20.190Z,65.27
2018-09-11T18:49:10.116Z,66.08
2018-09-11T18:50:09.222Z,64.87
2018-09-11T18:51:09.388Z,64.87
2018-09-11T18:52:10.691Z,64.90
2018-09-11T18:53:09.514Z,64.26
2018-09-11T18:54:09.563Z,65.27
2018-09-11T18:55:09.565Z,65.00
2018-09-11T18:56:09.838Z,65.07
2018-09-11T18:57:10.456Z,64.39
2018-09-11T18:58:17.649Z,65.00
2018-09-11T18:59:10.036Z,65.10
2018-09-11T19:01:21.223Z,63.68
2018-09-11T19:02:20.855Z,65.00
2018-09-11T19:03:22.018Z,64.49
2018-09-11T19:04:20.575Z,66.72
2018-09-11T19:05:20.564Z,65.03
2018-09-11T19:06:20.581Z,66.44
2018-09-11T19:07:21.560Z,67.05
2018-09-11T19:08:20.525Z,66.14
2018-09-11T19:09:20.544Z,67.05
2018-09-11T19:10:20.515Z,66.95
2018-09-11T19:11:20.534Z,67.25
2018-09-11T19:13:04.540Z,65.73
2018-09-11T19:13:21.260Z,67.25
2018-09-11T19:14:20.506Z,67.15
2018-09-11T19:16:39.204Z,66.88
2018-09-11T19:17:32.858Z,68.60
2018-09-11T19:18:33.559Z,67.59
2018-09-11T19:19:36.001Z,67.08
2018-09-11T19:42:28.958Z,67.42
2018-09-11T19:43:41.519Z,67.42
2018-09-11T19:44:29.086Z,68.46
2018-09-11T19:50:41.071Z,68.56
2018-09-11T19:51:40.613Z,67.62
2018-09-11T19:52:40.632Z,68.46
2018-09-11T19:53:41.513Z,68.16
2018-09-11T19:54:40.458Z,67.52
2018-09-11T19:55:40.504Z,68.66
2018-09-11T19:56:40.437Z,67.14
2018-09-11T19:57:40.463Z,66.44
2018-09-11T19:58:40.507Z,66.94
2018-09-11T19:59:40.371Z,68.66
2018-09-11T20:01:02.155Z,66.64
2018-09-11T20:01:40.375Z,67.14
2018-09-11T20:02:40.342Z,66.84
2018-09-11T20:03:40.371Z,66.03
2018-09-11T20:04:40.313Z,66.64
2018-09-11T20:05:40.376Z,67.35
2018-09-11T20:06:40.292Z,68.16
2018-09-11T20:07:40.306Z,67.05
2018-09-11T20:08:40.281Z,67.05
2018-09-11T20:09:40.264Z,67.05
2018-09-11T20:10:41.326Z,66.84
2018-09-11T20:11:40.312Z,65.93
2018-09-11T20:12:40.219Z,67.05
2018-09-11T20:13:40.258Z,66.44
2018-09-11T20:14:40.265Z,65.73
2018-09-11T20:15:40.258Z,66.91
2018-09-11T20:18:38.593Z,64.89
2018-09-11T20:19:13.518Z,64.48
2018-09-11T20:20:13.518Z,64.58
2018-09-11T20:21:13.377Z,64.79
2018-09-11T20:22:13.218Z,62.46
2018-09-11T20:23:13.195Z,63.24
2018-09-11T20:24:13.159Z,62.93
2018-09-11T20:25:13.132Z,61.01
2018-09-11T20:26:13.196Z,61.90
2018-09-11T20:27:13.160Z,62.19
2018-09-11T20:28:13.141Z,62.10
2018-09-11T20:29:13.126Z,62.60
2018-09-11T20:30:13.095Z,62.81
2018-09-11T20:31:13.094Z,61.99
2018-09-11T20:32:13.068Z,61.99
2018-09-11T20:33:14.124Z,62.10
2018-09-11T20:34:13.076Z,61.39
2018-09-11T20:35:13.067Z,62.10
2018-09-11T20:36:13.013Z,62.81
2018-09-11T20:37:13.122Z,62.40
2018-09-11T20:38:13.069Z,63.92
2018-09-11T20:39:13.067Z,63.31
2018-09-11T20:40:12.957Z,63.81
2018-09-11T20:41:12.974Z,64.42
2018-09-11T20:42:13.007Z,64.73
2018-09-11T20:43:12.962Z,65.03
2018-09-11T20:44:13.921Z,64.15
2018-09-11T20:45:12.919Z,65.06
2018-09-11T20:46:12.948Z,64.15
2018-09-11T20:47:13.892Z,63.95
2018-09-11T20:48:12.944Z,63.87
2018-09-11T20:49:12.907Z,63.98
2018-09-11T20:50:12.860Z,63.87
2018-09-11T20:51:12.874Z,63.67
2018-09-11T20:52:12.871Z,63.47
2018-09-11T20:53:12.848Z,64.01
2018-09-11T20:54:12.821Z,63.87
2018-09-11T20:55:12.764Z,63.60
2018-09-11T20:56:12.852Z,64.01
2018-09-11T20:57:13.834Z,65.22
2018-09-11T20:58:12.762Z,65.53
2018-09-11T20:59:12.851Z,65.42
2018-09-11T21:00:12.762Z,66.24
2018-09-11T21:01:23.728Z,66.33
2018-09-11T21:02:12.691Z,66.37
2018-09-11T21:03:12.718Z,65.45
2018-09-11T21:04:12.729Z,65.32
2018-09-11T21:05:12.714Z,65.76
2018-09-11T21:06:12.685Z,65.53
2018-09-11T21:07:12.653Z,64.64
2018-09-11T21:08:12.650Z,65.36
2018-09-11T21:09:12.673Z,65.45
2018-09-11T21:10:12.602Z,65.25
2018-09-11T21:11:12.608Z,64.44
2018-09-11T21:12:12.628Z,65.05
2018-09-11T21:13:12.592Z,63.73
2018-09-11T21:14:12.593Z,65.56
2018-09-11T21:15:12.576Z,65.36
2018-09-11T21:16:12.572Z,63.73
2018-09-11T21:17:12.582Z,64.41
2018-09-11T21:18:12.533Z,64.85
2018-09-11T21:19:12.559Z,64.85
2018-09-11T21:20:12.477Z,64.64
2018-09-11T21:21:12.546Z,66.06
2018-09-11T21:22:12.495Z,65.12
2018-09-11T21:23:12.517Z,66.84
2018-09-11T21:24:12.457Z,66.27
2018-09-11T21:25:12.459Z,66.37
2018-09-11T21:26:13.434Z,66.37
2018-09-11T21:27:12.410Z,65.15
2018-09-11T21:28:12.449Z,65.86
2018-09-11T21:29:12.732Z,66.47
2018-09-11T21:30:13.397Z,65.96
2018-09-11T21:31:12.407Z,65.18
2018-09-11T21:32:12.377Z,64.75
2018-09-11T21:33:13.413Z,65.08
2018-09-11T21:34:12.356Z,66.50
2018-09-11T21:35:12.353Z,65.28
2018-09-11T21:36:12.334Z,67.00
2018-09-11T21:37:12.341Z,66.43
2018-09-11T21:38:12.343Z,66.83
2018-09-11T21:39:12.289Z,68.23
2018-09-11T21:40:12.281Z,68.73
2018-09-11T21:41:12.344Z,68.87
2018-09-11T21:46:59.156Z,68.66
2018-09-11T21:48:12.206Z,68.19
2018-09-11T21:50:37.249Z,69.20
2018-09-11T21:51:48.443Z,69.00
2018-09-11T22:05:44.794Z,70.76
2018-09-11T22:08:05.269Z,69.67
2018-09-11T22:10:20.344Z,71.30
2018-09-11T22:15:09.100Z,72.01
2018-09-11T22:21:59.466Z,71.43
2018-09-11T22:23:17.758Z,71.26
2018-09-11T22:26:37.523Z,71.36
2018-09-11T22:28:23.558Z,71.36
2018-09-11T22:30:52.163Z,72.38
2018-09-11T22:36:20.730Z,71.77
2018-09-11T22:37:43.906Z,72.08
2018-09-11T22:39:33.238Z,71.26
2018-09-11T22:52:43.063Z,70.65
2018-09-11T22:53:32.970Z,70.96
2018-09-11T22:54:50.911Z,71.06
2018-09-11T23:14:01.448Z,68.89
2018-09-11T23:39:06.068Z,67.07
2018-09-11T23:41:26.880Z,65.72
